Time;durP1;ratioP1;P1;durP2;ratioP2;P2;SDS_P1;SDS_P2;PMS_P1;PMS_P2;Temp;Humidity;BMP_temperature;BMP_pressure;BME280_temperature;BME280_humidity;BME280_pressure;Samples;Min_cycle;Max_cycle;Signal;HPM_P1;HPM_P2
2023/01/30 00:00:31;;;;;;;13.63;8.68;;;;;;;;;;5012617;28;20029;-70
2023/01/30 00:02:56;;;;;;;14.85;8.40;;;;;;;;;;5012858;28;20433;-69
2023/01/30 00:05:22;;;;;;;11.70;6.20;;;;;;;;;;5012838;28;20029;-68
2023/01/30 00:07:48;;;;;;;16.50;8.57;;;;;;;;;;5012785;28;20028;-70
2023/01/30 00:10:13;;;;;;;18.00;8.60;;;;;;;;;;5012698;28;20017;-69
2023/01/30 00:12:39;;;;;;;12.50;7.03;;;;;;;;;;5012699;28;20034;-69
2023/01/30 00:15:06;;;;;;;15.88;8.68;;;;;;;;;;5012597;28;20485;-69
2023/01/30 00:17:31;;;;;;;12.45;8.20;;;;;;;;;;5012661;28;20513;-70
2023/01/30 00:19:57;;;;;;;14.90;9.02;;;;;;;;;;5012640;28;20034;-71
2023/01/30 00:22:22;;;;;;;13.35;7.55;;;;;;;;;;5012692;28;20030;-71
2023/01/30 00:24:47;;;;;;;17.25;8.95;;;;;;;;;;5012629;28;20085;-68
2023/01/30 00:27:13;;;;;;;13.18;7.07;;;;;;;;;;5012627;28;20034;-69
2023/01/30 00:29:38;;;;;;;15.50;8.70;;;;;;;;;;5012516;28;20034;-69
2023/01/30 00:32:04;;;;;;;13.43;7.97;;;;;;;;;;5019293;28;20482;-69
2023/01/30 00:34:29;;;;;;;14.10;8.73;;;;;;;;;;5032550;28;20124;-69
2023/01/30 00:36:55;;;;;;;15.77;8.52;;;;;;;;;;5032436;28;20406;-69
2023/01/30 00:39:20;;;;;;;13.75;8.27;;;;;;;;;;5032170;28;20116;-69
2023/01/30 00:47:13;;;;;;;16.73;9.25;;;;;;;;;;4993290;28;20025;-71
2023/01/30 00:49:38;;;;;;;14.43;8.18;;;;;;;;;;4992961;28;20827;-69
2023/01/30 00:52:04;;;;;;;15.93;8.95;;;;;;;;;;4992800;28;20426;-69
2023/01/30 00:54:30;;;;;;;12.00;7.53;;;;;;;;;;4992975;28;20034;-69
2023/01/30 00:56:55;;;;;;;16.45;8.55;;;;;;;;;;4992687;28;20027;-69
2023/01/30 00:59:21;;;;;;;13.23;8.07;;;;;;;;;;4992881;28;20483;-69
2023/01/30 01:01:46;;;;;;;13.50;8.00;;;;;;;;;;4992922;28;20038;-68
2023/01/30 01:04:12;;;;;;;15.10;9.38;;;;;;;;;;4992815;28;20033;-69
2023/01/30 01:06:38;;;;;;;16.42;8.82;;;;;;;;;;4992785;28;20117;-70
2023/01/30 01:09:04;;;;;;;12.95;7.15;;;;;;;;;;4992890;28;20105;-68
2023/01/30 01:11:29;;;;;;;16.02;8.77;;;;;;;;;;4992560;28;20027;-69
2023/01/30 01:13:57;;;;;;;15.82;7.90;;;;;;;;;;4993001;28;20019;-68
2023/01/30 01:16:23;;;;;;;16.38;9.02;;;;;;;;;;4992810;28;20030;-69
2023/01/30 01:18:49;;;;;;;16.17;9.45;;;;;;;;;;4992702;28;20023;-68
2023/01/30 01:21:15;;;;;;;13.73;8.32;;;;;;;;;;4992777;28;20487;-68
2023/01/30 01:23:41;;;;;;;17.40;9.77;;;;;;;;;;4995558;28;20069;-70
2023/01/30 01:26:06;;;;;;;17.95;9.30;;;;;;;;;;4996004;28;20431;-69
2023/01/30 01:28:32;;;;;;;13.20;8.00;;;;;;;;;;4996176;28;20424;-69
2023/01/30 01:30:57;;;;;;;17.52;7.70;;;;;;;;;;4995926;28;20042;-69
2023/01/30 01:33:26;;;;;;;16.80;8.98;;;;;;;;;;5031256;28;20236;-68
2023/01/30 01:35:56;;;;;;;12.30;6.85;;;;;;;;;;5035492;28;20053;-69
2023/01/30 01:38:21;;;;;;;12.10;7.97;;;;;;;;;;5035302;28;20545;-69
2023/01/30 01:41:02;;;;;;;13.57;7.07;;;;;;;;;;5034983;28;20064;-68
2023/01/30 01:43:30;;;;;;;12.98;8.15;;;;;;;;;;5035034;28;20083;-68
2023/01/30 01:46:05;;;;;;;15.00;9.25;;;;;;;;;;5035256;28;20033;-69
2023/01/30 01:48:54;;;;;;;13.60;8.60;;;;;;;;;;5035302;28;20025;-68
2023/01/30 01:51:33;;;;;;;16.40;7.93;;;;;;;;;;5035103;28;20025;-69
2023/01/30 01:54:11;;;;;;;15.30;8.82;;;;;;;;;;5035193;28;20036;-70
2023/01/30 01:56:40;;;;;;;12.98;7.22;;;;;;;;;;5034762;28;20060;-70
2023/01/30 01:59:12;;;;;;;13.32;8.40;;;;;;;;;;5035045;28;20040;-70
2023/01/30 02:01:38;;;;;;;14.18;8.90;;;;;;;;;;5035014;28;20029;-70
2023/01/30 02:04:07;;;;;;;13.77;8.32;;;;;;;;;;5034809;28;20025;-67
2023/01/30 02:06:34;;;;;;;14.60;7.88;;;;;;;;;;5034933;28;20029;-68
2023/01/30 02:09:06;;;;;;;11.23;6.78;;;;;;;;;;5034646;28;20037;-68
2023/01/30 02:11:36;;;;;;;12.88;7.82;;;;;;;;;;5034452;28;20061;-70
2023/01/30 02:14:02;;;;;;;15.43;9.60;;;;;;;;;;5034831;28;20474;-69
2023/01/30 02:16:27;;;;;;;12.30;7.63;;;;;;;;;;5034551;28;20087;-70
2023/01/30 02:18:53;;;;;;;14.25;8.70;;;;;;;;;;5034656;28;20061;-70
2023/01/30 02:21:24;;;;;;;16.08;9.48;;;;;;;;;;5033324;28;20025;-70
2023/01/30 02:24:05;;;;;;;10.45;5.72;;;;;;;;;;5034453;28;20052;-70
2023/01/30 02:26:50;;;;;;;14.18;8.73;;;;;;;;;;5034539;28;20031;-70
2023/01/30 02:29:28;;;;;;;14.18;8.38;;;;;;;;;;5034428;28;20084;-70
2023/01/30 02:32:13;;;;;;;11.43;7.03;;;;;;;;;;5033898;28;20446;-69
2023/01/30 02:35:16;;;;;;;15.73;8.65;;;;;;;;;;5033229;28;20026;-69
2023/01/30 02:37:53;;;;;;;13.35;8.38;;;;;;;;;;5034284;28;20122;-70
2023/01/30 02:40:56;;;;;;;7.93;5.10;;;;;;;;;;5033895;28;20493;-69
2023/01/30 02:43:30;;;;;;;14.70;8.48;;;;;;;;;;5034053;28;20055;-69
2023/01/30 02:46:14;;;;;;;15.75;8.70;;;;;;;;;;5034189;28;20025;-69
2023/01/30 02:48:47;;;;;;;15.07;9.23;;;;;;;;;;5034048;28;20022;-70
2023/01/30 02:51:20;;;;;;;16.45;8.68;;;;;;;;;;5033899;28;20021;-69
2023/01/30 02:53:47;;;;;;;15.50;8.00;;;;;;;;;;5033699;28;20063;-70
2023/01/30 02:56:12;;;;;;;15.27;8.68;;;;;;;;;;5033832;28;20029;-70
2023/01/30 02:58:43;;;;;;;20.40;10.80;;;;;;;;;;5033792;28;20036;-69
2023/01/30 03:01:23;;;;;;;13.77;8.25;;;;;;;;;;5033838;28;20029;-68
2023/01/30 03:04:17;;;;;;;14.63;9.05;;;;;;;;;;5033667;28;20036;-68
2023/01/30 03:06:48;;;;;;;18.02;8.80;;;;;;;;;;4953422;29;20603;-69
2023/01/30 03:09:24;;;;;;;17.45;10.57;;;;;;;;;;4953295;29;20050;-68
2023/01/30 03:12:11;;;;;;;15.52;8.77;;;;;;;;;;4953428;29;20048;-68
2023/01/30 03:14:47;;;;;;;19.88;9.63;;;;;;;;;;4953253;29;20050;-68
2023/01/30 03:17:14;;;;;;;21.05;11.82;;;;;;;;;;4953438;29;20043;-69
2023/01/30 03:19:41;;;;;;;19.55;10.75;;;;;;;;;;4953140;29;20429;-68
2023/01/30 03:22:07;;;;;;;22.38;11.70;;;;;;;;;;4953062;29;20035;-68
2023/01/30 03:24:32;;;;;;;18.63;10.50;;;;;;;;;;4937252;29;20461;-68
2023/01/30 03:27:05;;;;;;;17.88;9.75;;;;;;;;;;4953105;29;20472;-68
2023/01/30 03:29:30;;;;;;;19.00;11.10;;;;;;;;;;4953142;29;20402;-69
2023/01/30 03:31:56;;;;;;;21.27;11.35;;;;;;;;;;4952777;29;20096;-68
2023/01/30 03:34:21;;;;;;;27.60;12.27;;;;;;;;;;4953097;29;20058;-69
2023/01/30 03:36:47;;;;;;;24.23;13.77;;;;;;;;;;4952772;29;20087;-69
2023/01/30 03:39:13;;;;;;;20.80;11.20;;;;;;;;;;4952996;29;20440;-68
2023/01/30 03:41:38;;;;;;;20.77;10.35;;;;;;;;;;4952928;29;20035;-69
2023/01/30 03:44:04;;;;;;;24.98;12.15;;;;;;;;;;5006094;28;20038;-68
2023/01/30 03:46:29;;;;;;;19.67;10.25;;;;;;;;;;5032683;28;20025;-68
2023/01/30 03:48:55;;;;;;;26.60;13.68;;;;;;;;;;5032888;28;20026;-69
2023/01/30 03:51:20;;;;;;;22.40;10.82;;;;;;;;;;5032701;28;20022;-67
2023/01/30 03:53:45;;;;;;;21.15;12.00;;;;;;;;;;5032912;28;20478;-67
2023/01/30 03:56:11;;;;;;;17.88;9.32;;;;;;;;;;5032920;28;20029;-69
2023/01/30 03:58:36;;;;;;;23.88;10.25;;;;;;;;;;5032628;28;20029;-69
2023/01/30 04:01:02;;;;;;;19.23;9.60;;;;;;;;;;5032885;28;20051;-69
2023/01/30 04:03:27;;;;;;;20.50;11.05;;;;;;;;;;5032812;28;20021;-69
2023/01/30 04:05:52;;;;;;;23.90;12.60;;;;;;;;;;5032547;28;20021;-70
2023/01/30 04:08:18;;;;;;;15.70;10.18;;;;;;;;;;5032771;28;20033;-69
2023/01/30 04:10:43;;;;;;;17.23;9.63;;;;;;;;;;5031321;28;20068;-70
2023/01/30 04:13:08;;;;;;;24.90;12.63;;;;;;;;;;5032723;28;20022;-70
2023/01/30 04:15:34;;;;;;;20.45;11.00;;;;;;;;;;5032658;28;20079;-70
2023/01/30 04:17:59;;;;;;;22.90;12.50;;;;;;;;;;5032759;28;20084;-70
2023/01/30 04:20:25;;;;;;;24.30;12.48;;;;;;;;;;5032335;28;20463;-70
2023/01/30 04:22:50;;;;;;;29.27;12.68;;;;;;;;;;5032615;28;20116;-70
2023/01/30 04:25:15;;;;;;;21.92;12.75;;;;;;;;;;5032654;28;20120;-70
2023/01/30 04:27:42;;;;;;;23.58;12.27;;;;;;;;;;5032364;28;20025;-70
2023/01/30 04:30:09;;;;;;;21.95;12.50;;;;;;;;;;5032467;28;20068;-70
2023/01/30 04:32:34;;;;;;;23.58;12.55;;;;;;;;;;5032158;28;20140;-70
2023/01/30 04:35:00;;;;;;;23.58;12.23;;;;;;;;;;5032183;28;20072;-70
2023/01/30 04:37:25;;;;;;;22.42;11.73;;;;;;;;;;5032328;28;20425;-71
2023/01/30 04:39:50;;;;;;;25.70;12.55;;;;;;;;;;5032331;28;20060;-70
2023/01/30 04:42:16;;;;;;;23.08;12.50;;;;;;;;;;5032399;28;20037;-70
2023/01/30 04:44:41;;;;;;;21.17;10.85;;;;;;;;;;5032347;28;20052;-68
2023/01/30 04:47:07;;;;;;;21.77;11.52;;;;;;;;;;5032436;28;20029;-70
2023/01/30 04:49:32;;;;;;;20.48;11.00;;;;;;;;;;5032145;28;20025;-70
2023/01/30 04:51:57;;;;;;;19.95;10.82;;;;;;;;;;5032188;28;20462;-70
2023/01/30 04:54:23;;;;;;;23.20;11.88;;;;;;;;;;5032243;28;20030;-70
2023/01/30 04:56:48;;;;;;;19.42;10.43;;;;;;;;;;5032438;28;20068;-69
2023/01/30 04:59:14;;;;;;;20.75;9.98;;;;;;;;;;5035923;28;20116;-69
2023/01/30 05:01:40;;;;;;;20.45;10.82;;;;;;;;;;5036154;28;20026;-68
2023/01/30 05:04:06;;;;;;;17.48;9.02;;;;;;;;;;5035806;28;20455;-70
2023/01/30 05:06:33;;;;;;;19.35;11.00;;;;;;;;;;5035999;28;20025;-69
2023/01/30 05:08:59;;;;;;;20.35;10.57;;;;;;;;;;5036020;28;20032;-69
2023/01/30 05:11:26;;;;;;;12.63;7.32;;;;;;;;;;5035854;28;20021;-67
2023/01/30 05:13:52;;;;;;;22.95;10.32;;;;;;;;;;5034272;28;20037;-67
2023/01/30 05:16:19;;;;;;;18.45;10.80;;;;;;;;;;5035679;28;20030;-69
2023/01/30 05:18:44;;;;;;;13.35;7.80;;;;;;;;;;5035305;28;20044;-69
2023/01/30 05:21:17;;;;;;;19.27;10.35;;;;;;;;;;5035721;28;20493;-70
2023/01/30 05:23:43;;;;;;;18.33;10.27;;;;;;;;;;5034508;28;20021;-68
2023/01/30 05:26:09;;;;;;;15.63;8.68;;;;;;;;;;5035623;28;20028;-68
2023/01/30 05:28:34;;;;;;;15.13;8.82;;;;;;;;;;5035246;28;20033;-67
2023/01/30 05:31:02;;;;;;;12.77;8.07;;;;;;;;;;5035248;28;20140;-69
2023/01/30 05:33:27;;;;;;;16.08;8.85;;;;;;;;;;5034994;28;20490;-69
2023/01/30 05:35:53;;;;;;;16.95;9.43;;;;;;;;;;5035372;28;20033;-69
2023/01/30 05:38:18;;;;;;;14.40;8.13;;;;;;;;;;5035363;28;20029;-68
2023/01/30 05:40:43;;;;;;;16.10;9.35;;;;;;;;;;5035107;28;20430;-69
2023/01/30 05:43:09;;;;;;;18.35;9.77;;;;;;;;;;5035269;28;20029;-69
2023/01/30 05:45:35;;;;;;;16.60;9.48;;;;;;;;;;5035040;28;20049;-69
2023/01/30 05:48:01;;;;;;;16.40;9.02;;;;;;;;;;5033650;28;20416;-69
2023/01/30 05:50:26;;;;;;;16.52;9.38;;;;;;;;;;5035336;28;20051;-70
2023/01/30 05:52:52;;;;;;;15.25;7.93;;;;;;;;;;5034923;28;20466;-68
2023/01/30 05:55:17;;;;;;;13.68;7.65;;;;;;;;;;5035048;28;20149;-69
2023/01/30 05:57:43;;;;;;;19.55;9.38;;;;;;;;;;5034827;28;20365;-69
2023/01/30 06:00:09;;;;;;;14.20;8.10;;;;;;;;;;5034799;28;20030;-69
2023/01/30 06:02:35;;;;;;;12.77;7.53;;;;;;;;;;5034430;28;20056;-69
2023/01/30 06:05:00;;;;;;;14.55;8.90;;;;;;;;;;5034750;28;20466;-68
2023/01/30 06:07:25;;;;;;;16.33;9.18;;;;;;;;;;5034678;28;20032;-68
2023/01/30 06:09:51;;;;;;;18.65;10.32;;;;;;;;;;5034390;28;20079;-68
2023/01/30 06:12:16;;;;;;;14.43;8.07;;;;;;;;;;5034188;28;20018;-68
2023/01/30 06:14:42;;;;;;;14.60;7.85;;;;;;;;;;5034653;28;20017;-68
2023/01/30 06:17:07;;;;;;;13.07;8.13;;;;;;;;;;5034302;28;20025;-70
2023/01/30 06:19:33;;;;;;;17.88;7.40;;;;;;;;;;5033165;28;20505;-70
2023/01/30 06:21:58;;;;;;;17.52;8.77;;;;;;;;;;5034430;28;20044;-71
2023/01/30 06:24:24;;;;;;;13.43;7.32;;;;;;;;;;5032870;28;20029;-70
2023/01/30 06:26:49;;;;;;;13.65;7.57;;;;;;;;;;5034247;28;20017;-70
2023/01/30 06:29:15;;;;;;;16.83;8.65;;;;;;;;;;5034024;28;20112;-72
2023/01/30 06:31:40;;;;;;;12.50;7.35;;;;;;;;;;5033471;28;20167;-70
2023/01/30 06:34:06;;;;;;;12.48;6.53;;;;;;;;;;5034027;28;20025;-70
2023/01/30 06:36:31;;;;;;;17.13;9.82;;;;;;;;;;5033957;28;20493;-70
2023/01/30 06:38:57;;;;;;;17.08;9.82;;;;;;;;;;5033969;28;20021;-70
2023/01/30 06:41:22;;;;;;;15.00;7.95;;;;;;;;;;5033944;28;20025;-70
2023/01/30 06:43:47;;;;;;;14.43;8.68;;;;;;;;;;5033806;28;20045;-69
2023/01/30 06:46:13;;;;;;;14.00;8.02;;;;;;;;;;5033564;28;20021;-69
2023/01/30 06:48:38;;;;;;;15.15;9.15;;;;;;;;;;5033680;28;20355;-68
2023/01/30 06:51:04;;;;;;;16.02;8.25;;;;;;;;;;5033721;28;20026;-69
2023/01/30 06:53:29;;;;;;;14.75;8.98;;;;;;;;;;5033225;28;20091;-70
2023/01/30 06:56:00;;;;;;;16.75;7.88;;;;;;;;;;5033846;28;20021;-70
2023/01/30 06:58:25;;;;;;;18.35;9.15;;;;;;;;;;5033895;28;20475;-69
2023/01/30 07:00:50;;;;;;;13.25;7.97;;;;;;;;;;5020492;28;20045;-70
2023/01/30 07:03:17;;;;;;;15.60;8.88;;;;;;;;;;4994379;28;20095;-69
2023/01/30 07:05:44;;;;;;;13.02;8.13;;;;;;;;;;4996495;28;20043;-71
2023/01/30 07:08:10;;;;;;;11.82;7.30;;;;;;;;;;5002210;28;20070;-70
2023/01/30 07:10:36;;;;;;;15.27;8.65;;;;;;;;;;5003875;28;20053;-70
2023/01/30 07:13:02;;;;;;;14.57;8.40;;;;;;;;;;5003565;28;20443;-70
2023/01/30 07:15:28;;;;;;;12.90;7.90;;;;;;;;;;5002213;28;20022;-70
2023/01/30 07:17:53;;;;;;;17.55;8.02;;;;;;;;;;5003858;28;20045;-69
2023/01/30 07:20:19;;;;;;;13.15;8.38;;;;;;;;;;5002796;28;20014;-70
2023/01/30 07:22:51;;;;;;;13.07;7.28;;;;;;;;;;5002249;28;20099;-70
2023/01/30 07:25:18;;;;;;;12.00;7.10;;;;;;;;;;5003154;28;20022;-70
2023/01/30 07:28:01;;;;;;;12.48;7.57;;;;;;;;;;5002309;28;20371;-68
2023/01/30 07:30:28;;;;;;;15.23;8.43;;;;;;;;;;5003735;28;20545;-69
2023/01/30 07:32:56;;;;;;;12.02;7.30;;;;;;;;;;5003949;28;20033;-69
2023/01/30 07:35:23;;;;;;;13.32;6.57;;;;;;;;;;5003423;28;20047;-68
2023/01/30 07:37:50;;;;;;;10.07;5.95;;;;;;;;;;5012223;28;20018;-68
2023/01/30 07:40:16;;;;;;;15.07;6.15;;;;;;;;;;5013285;28;20030;-70
2023/01/30 07:42:41;;;;;;;11.00;6.57;;;;;;;;;;5013155;28;20026;-69
2023/01/30 07:45:07;;;;;;;11.18;6.50;;;;;;;;;;5013121;28;20026;-69
2023/01/30 07:47:33;;;;;;;13.27;7.72;;;;;;;;;;5013227;28;20069;-68
2023/01/30 07:49:58;;;;;;;13.90;7.50;;;;;;;;;;5013156;28;20022;-70
2023/01/30 07:52:23;;;;;;;10.60;6.63;;;;;;;;;;5003947;28;20022;-69
2023/01/30 07:54:49;;;;;;;10.02;6.45;;;;;;;;;;5009567;28;20018;-68
2023/01/30 07:57:14;;;;;;;10.32;6.82;;;;;;;;;;4995656;28;20091;-71
2023/01/30 07:59:40;;;;;;;6.93;3.95;;;;;;;;;;5012940;28;20109;-71
2023/01/30 08:02:08;;;;;;;10.25;6.45;;;;;;;;;;4998356;28;20475;-68
2023/01/30 08:04:33;;;;;;;8.60;4.63;;;;;;;;;;5009175;28;20033;-70
2023/01/30 08:06:58;;;;;;;9.20;5.57;;;;;;;;;;5009965;28;20072;-70
2023/01/30 08:09:24;;;;;;;8.50;5.40;;;;;;;;;;5008667;28;20109;-70
2023/01/30 08:11:49;;;;;;;8.50;6.10;;;;;;;;;;5008825;28;20108;-69
2023/01/30 08:14:15;;;;;;;8.98;5.78;;;;;;;;;;5009255;28;20383;-70
2023/01/30 08:16:40;;;;;;;10.93;5.95;;;;;;;;;;5010265;28;20026;-70
2023/01/30 08:19:06;;;;;;;7.60;5.40;;;;;;;;;;5009638;28;20033;-71
2023/01/30 08:21:31;;;;;;;8.80;5.07;;;;;;;;;;5009931;28;20186;-71
2023/01/30 08:23:56;;;;;;;7.38;5.07;;;;;;;;;;5009767;28;20483;-70
2023/01/30 08:26:22;;;;;;;8.38;4.80;;;;;;;;;;5009317;28;20072;-70
2023/01/30 08:28:47;;;;;;;8.70;5.20;;;;;;;;;;5002231;28;20112;-69
2023/01/30 08:31:15;;;;;;;8.38;4.70;;;;;;;;;;5009747;28;20068;-70
2023/01/30 08:33:41;;;;;;;9.52;5.00;;;;;;;;;;5011403;28;20549;-69
2023/01/30 08:36:06;;;;;;;8.85;4.85;;;;;;;;;;5013310;28;20022;-70
2023/01/30 08:38:32;;;;;;;6.50;3.83;;;;;;;;;;5013754;28;20048;-70
2023/01/30 08:40:58;;;;;;;8.32;4.75;;;;;;;;;;5013429;28;20088;-71
2023/01/30 08:43:23;;;;;;;4.75;3.33;;;;;;;;;;5014086;28;20379;-71
2023/01/30 08:45:52;;;;;;;9.68;5.40;;;;;;;;;;5013522;28;20037;-71
2023/01/30 08:48:17;;;;;;;5.65;3.80;;;;;;;;;;5013289;28;20076;-71
2023/01/30 08:50:43;;;;;;;18.10;6.20;;;;;;;;;;5013931;28;20018;-70
2023/01/30 08:53:09;;;;;;;10.75;4.32;;;;;;;;;;5013676;28;20430;-71
2023/01/30 08:55:34;;;;;;;16.63;7.80;;;;;;;;;;5013396;28;20036;-72
2023/01/30 08:58:00;;;;;;;18.58;7.45;;;;;;;;;;5013198;28;20044;-72
2023/01/30 09:00:26;;;;;;;16.10;7.35;;;;;;;;;;5013148;28;20033;-72
2023/01/30 09:02:56;;;;;;;11.13;4.32;;;;;;;;;;5013194;28;20028;-70
2023/01/30 09:05:23;;;;;;;9.90;4.88;;;;;;;;;;5012942;28;20022;-71
2023/01/30 09:07:49;;;;;;;8.32;4.28;;;;;;;;;;5013116;28;20113;-71
2023/01/30 09:10:15;;;;;;;6.20;2.53;;;;;;;;;;5013034;28;20049;-71
2023/01/30 09:12:40;;;;;;;9.48;3.40;;;;;;;;;;5013358;28;20104;-70
2023/01/30 09:15:06;;;;;;;6.60;2.78;;;;;;;;;;5012938;28;20033;-72
2023/01/30 09:17:32;;;;;;;7.95;2.63;;;;;;;;;;5013086;28;20034;-71
2023/01/30 09:19:57;;;;;;;6.28;3.40;;;;;;;;;;5012120;28;20545;-70
2023/01/30 09:22:23;;;;;;;7.53;2.92;;;;;;;;;;5012768;28;20088;-71
2023/01/30 09:24:48;;;;;;;4.50;2.15;;;;;;;;;;5012529;28;20057;-69
2023/01/30 09:27:14;;;;;;;6.63;2.78;;;;;;;;;;5012784;28;20375;-70
2023/01/30 09:29:39;;;;;;;10.48;2.83;;;;;;;;;;5013164;28;20493;-72
2023/01/30 09:32:04;;;;;;;9.15;2.33;;;;;;;;;;5012374;28;20650;-72
2023/01/30 09:34:30;;;;;;;12.15;3.03;;;;;;;;;;5012708;28;20233;-72
2023/01/30 09:36:59;;;;;;;7.40;2.35;;;;;;;;;;5012282;28;20066;-71
2023/01/30 09:39:24;;;;;;;6.07;1.73;;;;;;;;;;5012491;28;20487;-71
2023/01/30 09:41:57;;;;;;;5.65;2.67;;;;;;;;;;5012459;28;20069;-72
2023/01/30 09:44:31;;;;;;;11.65;3.97;;;;;;;;;;5011819;28;20121;-72
2023/01/30 09:47:15;;;;;;;8.00;2.20;;;;;;;;;;5012212;28;20033;-72
2023/01/30 09:50:07;;;;;;;7.63;2.55;;;;;;;;;;5012883;28;20545;-72
2023/01/30 09:52:32;;;;;;;11.10;3.15;;;;;;;;;;5012156;28;20126;-71
2023/01/30 09:55:22;;;;;;;11.20;2.90;;;;;;;;;;5012127;28;20120;-70
2023/01/30 09:57:48;;;;;;;3.25;1.48;;;;;;;;;;5006992;28;20057;-71
2023/01/30 10:00:27;;;;;;;5.95;1.30;;;;;;;;;;5010853;28;20042;-69
2023/01/30 10:03:03;;;;;;;10.15;3.22;;;;;;;;;;5010833;28;20581;-71
2023/01/30 10:06:08;;;;;;;7.50;2.88;;;;;;;;;;5012249;28;20060;-70
2023/01/30 10:08:48;;;;;;;6.45;2.10;;;;;;;;;;4960127;28;20039;-69
2023/01/30 10:11:32;;;;;;;13.63;3.38;;;;;;;;;;4955817;28;20046;-69
2023/01/30 10:14:32;;;;;;;6.00;2.33;;;;;;;;;;4948068;28;20051;-70
2023/01/30 10:17:34;;;;;;;11.65;2.95;;;;;;;;;;4969134;28;21309;-71
2023/01/30 10:20:12;;;;;;;11.95;4.30;;;;;;;;;;4951409;28;20082;-70
2023/01/30 10:22:40;;;;;;;3.55;2.20;;;;;;;;;;4969713;28;20448;-69
2023/01/30 10:25:17;;;;;;;7.85;3.33;;;;;;;;;;4970596;28;20092;-69
2023/01/30 10:27:54;;;;;;;8.82;3.53;;;;;;;;;;4968826;28;20089;-70
2023/01/30 10:30:20;;;;;;;12.45;3.85;;;;;;;;;;4967930;28;20526;-70
2023/01/30 10:32:56;;;;;;;7.38;2.03;;;;;;;;;;4969241;28;20081;-70
2023/01/30 10:35:25;;;;;;;10.63;3.67;;;;;;;;;;4970697;28;20030;-71
2023/01/30 10:38:01;;;;;;;8.57;2.95;;;;;;;;;;4964387;28;20163;-69
2023/01/30 10:40:59;;;;;;;9.27;3.08;;;;;;;;;;4957234;28;20073;-70
2023/01/30 10:43:33;;;;;;;13.18;2.28;;;;;;;;;;4991227;28;20521;-70
2023/01/30 10:46:29;;;;;;;10.65;2.13;;;;;;;;;;5001722;28;20407;-69
2023/01/30 10:49:05;;;;;;;6.72;2.70;;;;;;;;;;5010928;28;20036;-69
2023/01/30 10:51:34;;;;;;;14.25;3.50;;;;;;;;;;5010075;28;20190;-70
2023/01/30 10:54:03;;;;;;;15.75;5.00;;;;;;;;;;5010046;28;20041;-72
2023/01/30 10:56:28;;;;;;;18.58;4.10;;;;;;;;;;5010161;28;20034;-71
2023/01/30 10:59:05;;;;;;;15.60;4.47;;;;;;;;;;5011318;28;20048;-70
2023/01/30 11:01:47;;;;;;;25.60;8.43;;;;;;;;;;5009868;28;20088;-72
2023/01/30 11:04:37;;;;;;;27.00;9.15;;;;;;;;;;5010090;28;20029;-69
2023/01/30 11:07:03;;;;;;;42.20;13.35;;;;;;;;;;5010322;28;20034;-69
2023/01/30 11:09:46;;;;;;;48.33;16.63;;;;;;;;;;5010381;28;20033;-69
2023/01/30 11:12:12;;;;;;;14.63;5.60;;;;;;;;;;5009385;28;20113;-68
2023/01/30 11:14:51;;;;;;;12.77;4.20;;;;;;;;;;5010517;28;20145;-68
2023/01/30 11:17:18;;;;;;;13.20;2.42;;;;;;;;;;4997811;28;20034;-68
2023/01/30 11:19:44;;;;;;;8.48;2.00;;;;;;;;;;4999789;28;20021;-69
2023/01/30 11:22:13;;;;;;;8.48;3.03;;;;;;;;;;5005848;28;20026;-68
2023/01/30 11:24:42;;;;;;;7.03;2.15;;;;;;;;;;5010602;28;20168;-68
2023/01/30 11:27:17;;;;;;;19.25;5.97;;;;;;;;;;5010705;28;20021;-71
2023/01/30 11:29:42;;;;;;;11.38;2.92;;;;;;;;;;5010692;28;20049;-69
2023/01/30 11:32:18;;;;;;;3.95;1.70;;;;;;;;;;5008569;28;20436;-69
2023/01/30 11:35:02;;;;;;;4.03;1.25;;;;;;;;;;5010636;28;20482;-69
2023/01/30 11:37:33;;;;;;;5.35;1.83;;;;;;;;;;5010075;28;20025;-69
2023/01/30 11:39:58;;;;;;;7.35;2.00;;;;;;;;;;5008029;28;20535;-70
2023/01/30 11:42:30;;;;;;;6.30;1.80;;;;;;;;;;5009327;28;20138;-69
2023/01/30 11:44:58;;;;;;;5.13;1.40;;;;;;;;;;5009982;28;20026;-69
2023/01/30 11:47:26;;;;;;;3.15;1.48;;;;;;;;;;5010197;28;20022;-69
2023/01/30 11:49:55;;;;;;;1.65;1.00;;;;;;;;;;5010261;28;20025;-69
2023/01/30 11:52:30;;;;;;;4.82;2.00;;;;;;;;;;5010050;28;20573;-69
2023/01/30 11:55:06;;;;;;;3.47;1.55;;;;;;;;;;5010318;28;20483;-70
2023/01/30 11:57:42;;;;;;;7.07;2.00;;;;;;;;;;5010292;28;20034;-70
2023/01/30 12:00:25;;;;;;;16.73;6.00;;;;;;;;;;5009114;28;20026;-69
2023/01/30 12:02:53;;;;;;;9.68;4.03;;;;;;;;;;5010001;28;20451;-68
2023/01/30 12:05:27;;;;;;;11.02;4.40;;;;;;;;;;5009381;28;20104;-69
2023/01/30 12:08:13;;;;;;;9.75;3.17;;;;;;;;;;5008479;28;20032;-69
2023/01/30 12:10:43;;;;;;;6.97;2.05;;;;;;;;;;5009660;28;20490;-70
2023/01/30 12:13:16;;;;;;;9.35;1.48;;;;;;;;;;5009600;28;20045;-69
2023/01/30 12:15:44;;;;;;;8.30;2.85;;;;;;;;;;5009719;28;20037;-69
2023/01/30 12:18:18;;;;;;;6.22;2.47;;;;;;;;;;5007398;28;20034;-69
2023/01/30 12:21:00;;;;;;;13.85;3.40;;;;;;;;;;5009681;28;20033;-69
2023/01/30 12:23:31;;;;;;;7.47;2.70;;;;;;;;;;5009559;28;21845;-69
2023/01/30 12:26:17;;;;;;;7.28;2.95;;;;;;;;;;5009628;28;20022;-69
2023/01/30 12:28:55;;;;;;;9.18;3.63;;;;;;;;;;5010215;28;20026;-68
2023/01/30 12:31:40;;;;;;;10.98;3.25;;;;;;;;;;5008597;28;20046;-68
2023/01/30 12:34:08;;;;;;;5.50;2.47;;;;;;;;;;5008776;28;20073;-68
2023/01/30 12:36:39;;;;;;;6.60;2.17;;;;;;;;;;5009426;28;20056;-69
2023/01/30 12:39:14;;;;;;;8.38;2.95;;;;;;;;;;5008677;28;20037;-69
2023/01/30 12:41:48;;;;;;;6.38;1.60;;;;;;;;;;5008291;28;20030;-69
2023/01/30 12:44:51;;;;;;;10.95;3.65;;;;;;;;;;5009040;28;20144;-67
2023/01/30 12:47:25;;;;;;;7.38;2.63;;;;;;;;;;5008280;28;20459;-68
2023/01/30 12:50:05;;;;;;;9.55;3.08;;;;;;;;;;5007777;28;20033;-67
2023/01/30 12:52:50;;;;;;;8.23;2.08;;;;;;;;;;5007697;28;20427;-67
2023/01/30 12:55:30;;;;;;;13.40;3.70;;;;;;;;;;5009096;28;20117;-67
2023/01/30 12:58:19;;;;;;;8.63;2.20;;;;;;;;;;5008524;28;20037;-67
2023/01/30 13:00:59;;;;;;;7.32;1.48;;;;;;;;;;5006103;28;21413;-67
2023/01/30 13:03:27;;;;;;;;;;;;;;;;;;5008907;28;20037;-69
2023/01/30 13:06:25;;;;;;;4.40;2.03;;;;;;;;;;5009127;28;19941;-68
2023/01/30 13:08:53;;;;;;;3.83;1.25;;;;;;;;;;4952504;28;20496;-68
2023/01/30 13:11:43;;;;;;;4.60;1.58;;;;;;;;;;4957474;28;20047;-67
2023/01/30 13:14:28;;;;;;;7.25;1.90;;;;;;;;;;4963938;28;20035;-70
2023/01/30 13:17:15;;;;;;;8.13;2.38;;;;;;;;;;4965695;28;20038;-67
2023/01/30 13:19:58;;;;;;;5.97;2.40;;;;;;;;;;4951505;28;20054;-69
2023/01/30 13:23:12;;;;;;;10.82;3.30;;;;;;;;;;4950784;28;20041;-69
2023/01/30 13:25:41;;;;;;;9.10;3.28;;;;;;;;;;4933125;29;20123;-71
2023/01/30 13:28:19;;;;;;;9.55;2.60;;;;;;;;;;4916090;29;20042;-69
2023/01/30 13:30:47;;;;;;;10.85;3.50;;;;;;;;;;4931225;29;20172;-71
2023/01/30 13:33:19;;;;;;;7.97;2.75;;;;;;;;;;4931955;29;20513;-71
2023/01/30 13:36:05;;;;;;;6.55;2.47;;;;;;;;;;4933231;29;20067;-70
2023/01/30 13:38:34;;;;;;;5.40;1.80;;;;;;;;;;4931446;29;20571;-69
2023/01/30 13:41:00;;;;;;;8.77;3.38;;;;;;;;;;4931407;29;20055;-69
2023/01/30 13:43:30;;;;;;;8.90;2.90;;;;;;;;;;4936357;28;20920;-69
2023/01/30 13:45:59;;;;;;;3.20;1.30;;;;;;;;;;4989800;28;20130;-68
2023/01/30 13:49:09;;;;;;;4.15;2.13;;;;;;;;;;4987714;28;20042;-69
2023/01/30 13:51:50;;;;;;;2.97;2.30;;;;;;;;;;4931339;29;20043;-70
2023/01/30 13:54:28;;;;;;;5.25;2.38;;;;;;;;;;4930465;29;20577;-69
2023/01/30 13:57:14;;;;;;;3.67;1.95;;;;;;;;;;4931514;29;20066;-68
2023/01/30 14:00:01;;;;;;;7.47;3.08;;;;;;;;;;4954756;28;20039;-69
2023/01/30 14:02:26;;;;;;;3.83;1.65;;;;;;;;;;4968354;28;20046;-70
2023/01/30 14:04:56;;;;;;;4.40;1.40;;;;;;;;;;4969671;28;20396;-69
2023/01/30 14:07:40;;;;;;;1.33;0.85;;;;;;;;;;4952405;28;20043;-68
2023/01/30 14:10:08;;;;;;;1.75;0.82;;;;;;;;;;4969927;28;20484;-68
2023/01/30 14:12:46;;;;;;;3.22;1.15;;;;;;;;;;4970110;28;20187;-67
2023/01/30 14:15:14;;;;;;;5.05;1.65;;;;;;;;;;4969238;28;20114;-67
2023/01/30 14:18:04;;;;;;;4.03;1.60;;;;;;;;;;4969595;28;20400;-68
2023/01/30 14:20:39;;;;;;;3.58;1.40;;;;;;;;;;4970347;28;20090;-70
2023/01/30 14:23:20;;;;;;;4.38;2.05;;;;;;;;;;4968829;28;20030;-68
2023/01/30 14:25:55;;;;;;;5.80;1.67;;;;;;;;;;4969148;28;20523;-70
2023/01/30 14:28:20;;;;;;;3.85;1.20;;;;;;;;;;5010063;28;20038;-69
2023/01/30 14:30:48;;;;;;;4.22;2.38;;;;;;;;;;5011171;28;20072;-70
2023/01/30 14:33:19;;;;;;;5.43;1.50;;;;;;;;;;5010164;28;20034;-70
2023/01/30 14:36:06;;;;;;;2.88;1.10;;;;;;;;;;5011085;28;20479;-68
2023/01/30 14:38:33;;;;;;;5.40;2.58;;;;;;;;;;5010425;28;20376;-69
2023/01/30 14:40:59;;;;;;;4.40;2.08;;;;;;;;;;5010704;28;20057;-70
2023/01/30 14:43:24;;;;;;;7.38;2.33;;;;;;;;;;5009827;28;20053;-68
2023/01/30 14:45:57;;;;;;;5.50;1.98;;;;;;;;;;5010180;28;20025;-70
2023/01/30 14:48:53;;;;;;;5.95;1.80;;;;;;;;;;5010791;28;20034;-70
2023/01/30 14:51:41;;;;;;;6.30;2.75;;;;;;;;;;5010878;28;20053;-68
2023/01/30 14:54:16;;;;;;;9.63;2.65;;;;;;;;;;5010749;28;20113;-70
2023/01/30 14:57:16;;;;;;;5.20;2.50;;;;;;;;;;5010775;28;20414;-71
2023/01/30 14:59:45;;;;;;;;;;;;;;;;;;5010922;28;20482;-70